Akron, Pennsylvania
Current Conditions -  °F | °C
As of 4:39 PM on Wednesday 26 Nov 2014 (Local Time) from KLNS Reporting Station
Light Snow Light Snow  
Wind Chill: 24°   Ceiling: 2400
Heat Index: 33°   Visibility: 3mi
Dew Point: 31°   Wind: 13mph
Humidity: 92%   Direction: 320°NW
Pressure: 29.91"   Gusts: NA
Location:  40.16°N, 76.2°W
Report Text: KLNS 262139Z 32011KT 3SM -SN BR OVC024 01/M01 A2991 RMK AO2 P0003 T00061006
Loading
Personal Weather Stations






























Interactive Weather Map New forecast layout! Learn more

10-Day Weather Forecast

Advertisements
Track Severe Weather on mobile